sensor_id;sensor_type;location;lat;lon;timestamp;pressure;altitude;pressure_sealevel;temperature;humidity
74125;BME280;62475;52.192;5.396;2023-02-24T00:00:42;101588.16;;;3.05;100.00
74125;BME280;62475;52.192;5.396;2023-02-24T00:03:15;101593.50;;;3.11;100.00
74125;BME280;62475;52.192;5.396;2023-02-24T00:05:40;101583.25;;;3.13;100.00
74125;BME280;62475;52.192;5.396;2023-02-24T00:08:13;101585.66;;;3.03;100.00
74125;BME280;62475;52.192;5.396;2023-02-24T00:10:39;101589.00;;;3.05;100.00
74125;BME280;62475;52.192;5.396;2023-02-24T00:13:04;101576.03;;;3.07;100.00
74125;BME280;62475;52.192;5.396;2023-02-24T00:15:29;101576.03;;;3.07;100.00
74125;BME280;62475;52.192;5.396;2023-02-24T00:17:54;101561.69;;;3.18;100.00
74125;BME280;62475;52.192;5.396;2023-02-24T00:20:20;101565.31;;;3.12;100.00
74125;BME280;62475;52.192;5.396;2023-02-24T00:22:45;101552.78;;;3.11;100.00
74125;BME280;62475;52.192;5.396;2023-02-24T00:25:10;101555.50;;;3.11;100.00
74125;BME280;62475;52.192;5.396;2023-02-24T00:27:36;101557.09;;;3.19;100.00
74125;BME280;62475;52.192;5.396;2023-02-24T00:30:02;101552.88;;;3.23;100.00
74125;BME280;62475;52.192;5.396;2023-02-24T00:32:29;101543.13;;;3.33;100.00
74125;BME280;62475;52.192;5.396;2023-02-24T00:34:54;101540.91;;;3.12;100.00
74125;BME280;62475;52.192;5.396;2023-02-24T00:37:19;101538.19;;;3.12;100.00
74125;BME280;62475;52.192;5.396;2023-02-24T00:39:48;101548.84;;;3.25;100.00
74125;BME280;62475;52.192;5.396;2023-02-24T00:42:13;101543.28;;;3.02;100.00
74125;BME280;62475;52.192;5.396;2023-02-24T00:44:40;101535.97;;;3.21;100.00
74125;BME280;62475;52.192;5.396;2023-02-24T00:47:08;101536.97;;;3.08;100.00
74125;BME280;62475;52.192;5.396;2023-02-24T00:49:34;101528.06;;;3.01;100.00
74125;BME280;62475;52.192;5.396;2023-02-24T00:52:00;101526.72;;;3.10;100.00
74125;BME280;62475;52.192;5.396;2023-02-24T00:54:28;101523.50;;;3.02;100.00
74125;BME280;62475;52.192;5.396;2023-02-24T00:56:54;101514.34;;;3.14;100.00
74125;BME280;62475;52.192;5.396;2023-02-24T00:59:20;101518.56;;;3.10;100.00
74125;BME280;62475;52.192;5.396;2023-02-24T01:01:48;101516.38;;;3.01;100.00
74125;BME280;62475;52.192;5.396;2023-02-24T01:04:15;101516.31;;;3.07;100.00
74125;BME280;62475;52.192;5.396;2023-02-24T01:06:42;101505.16;;;2.97;100.00
74125;BME280;62475;52.192;5.396;2023-02-24T01:09:10;101504.25;;;3.03;100.00
74125;BME280;62475;52.192;5.396;2023-02-24T01:11:39;101492.94;;;3.06;100.00
74125;BME280;62475;52.192;5.396;2023-02-24T01:14:24;101492.69;;;2.60;100.00
74125;BME280;62475;52.192;5.396;2023-02-24T01:16:50;101487.31;;;2.72;100.00
74125;BME280;62475;52.192;5.396;2023-02-24T01:19:16;101477.69;;;2.76;100.00
74125;BME280;62475;52.192;5.396;2023-02-24T01:21:42;101475.72;;;2.83;100.00
74125;BME280;62475;52.192;5.396;2023-02-24T01:24:07;101474.66;;;2.84;100.00
74125;BME280;62475;52.192;5.396;2023-02-24T01:26:34;101472.63;;;2.79;100.00
74125;BME280;62475;52.192;5.396;2023-02-24T01:28:59;101461.72;;;2.68;100.00
74125;BME280;62475;52.192;5.396;2023-02-24T01:31:25;101457.44;;;2.42;100.00
74125;BME280;62475;52.192;5.396;2023-02-24T01:33:52;101451.13;;;2.48;100.00
74125;BME280;62475;52.192;5.396;2023-02-24T01:36:20;101453.50;;;2.56;100.00
74125;BME280;62475;52.192;5.396;2023-02-24T01:38:46;101441.06;;;2.49;100.00
74125;BME280;62475;52.192;5.396;2023-02-24T01:41:15;101434.53;;;2.38;100.00
74125;BME280;62475;52.192;5.396;2023-02-24T01:44:03;101437.63;;;2.23;100.00
74125;BME280;62475;52.192;5.396;2023-02-24T01:46:37;101428.28;;;2.19;100.00
74125;BME280;62475;52.192;5.396;2023-02-24T01:49:10;101426.47;;;2.13;100.00
74125;BME280;62475;52.192;5.396;2023-02-24T01:51:38;101416.69;;;2.12;100.00
74125;BME280;62475;52.192;5.396;2023-02-24T01:54:05;101414.13;;;2.17;100.00
74125;BME280;62475;52.192;5.396;2023-02-24T01:56:32;101414.72;;;2.19;100.00
74125;BME280;62475;52.192;5.396;2023-02-24T01:58:58;101399.59;;;2.30;100.00
74125;BME280;62475;52.192;5.396;2023-02-24T02:01:24;101400.06;;;2.27;100.00
74125;BME280;62475;52.192;5.396;2023-02-24T02:03:49;101404.41;;;2.28;100.00
74125;BME280;62475;52.192;5.396;2023-02-24T02:06:18;101391.38;;;2.00;100.00
74125;BME280;62475;52.192;5.396;2023-02-24T02:08:43;101399.38;;;2.13;100.00
74125;BME280;62475;52.192;5.396;2023-02-24T02:11:10;101396.75;;;2.25;100.00
74125;BME280;62475;52.192;5.396;2023-02-24T02:13:38;101401.69;;;2.28;100.00
74125;BME280;62475;52.192;5.396;2023-02-24T02:16:09;101402.31;;;2.30;100.00
74125;BME280;62475;52.192;5.396;2023-02-24T02:18:45;101382.97;;;2.26;100.00
74125;BME280;62475;52.192;5.396;2023-02-24T02:26:15;101380.47;;;2.25;100.00
74125;BME280;62475;52.192;5.396;2023-02-24T02:39:14;101345.78;;;2.15;100.00
74125;BME280;62475;52.192;5.396;2023-02-24T02:44:12;101349.72;;;2.01;100.00
74125;BME280;62475;52.192;5.396;2023-02-24T02:46:41;101343.31;;;1.96;100.00
74125;BME280;62475;52.192;5.396;2023-02-24T02:49:12;101343.84;;;2.04;100.00
74125;BME280;62475;52.192;5.396;2023-02-24T02:51:42;101334.03;;;2.21;100.00
74125;BME280;62475;52.192;5.396;2023-02-24T02:54:14;101340.44;;;2.09;100.00
74125;BME280;62475;52.192;5.396;2023-02-24T02:56:56;101343.91;;;2.16;100.00
74125;BME280;62475;52.192;5.396;2023-02-24T02:59:23;101329.81;;;2.07;100.00
74125;BME280;62475;52.192;5.396;2023-02-24T03:01:52;101329.22;;;2.05;100.00
74125;BME280;62475;52.192;5.396;2023-02-24T03:04:20;101325.72;;;2.05;100.00
74125;BME280;62475;52.192;5.396;2023-02-24T03:06:49;101321.63;;;1.96;100.00
74125;BME280;62475;52.192;5.396;2023-02-24T03:09:18;101319.69;;;2.03;100.00
74125;BME280;62475;52.192;5.396;2023-02-24T03:11:48;101318.00;;;2.02;100.00
74125;BME280;62475;52.192;5.396;2023-02-24T03:14:17;101307.03;;;1.97;100.00
74125;BME280;62475;52.192;5.396;2023-02-24T03:16:44;101303.66;;;2.01;100.00
74125;BME280;62475;52.192;5.396;2023-02-24T03:19:13;101305.31;;;2.02;100.00
74125;BME280;62475;52.192;5.396;2023-02-24T03:21:43;101290.78;;;1.97;100.00
74125;BME280;62475;52.192;5.396;2023-02-24T03:24:11;101292.81;;;2.01;100.00
74125;BME280;62475;52.192;5.396;2023-02-24T03:31:59;101280.69;;;2.04;100.00
74125;BME280;62475;52.192;5.396;2023-02-24T03:34:28;101283.63;;;2.02;100.00
74125;BME280;62475;52.192;5.396;2023-02-24T03:36:54;101278.97;;;2.09;100.00
74125;BME280;62475;52.192;5.396;2023-02-24T03:39:20;101265.72;;;2.01;100.00
74125;BME280;62475;52.192;5.396;2023-02-24T03:41:57;101274.91;;;2.00;100.00
74125;BME280;62475;52.192;5.396;2023-02-24T03:44:25;101269.72;;;1.99;100.00
74125;BME280;62475;52.192;5.396;2023-02-24T03:46:50;101277.50;;;2.07;100.00
74125;BME280;62475;52.192;5.396;2023-02-24T03:49:16;101270.59;;;2.11;100.00
74125;BME280;62475;52.192;5.396;2023-02-24T03:51:55;101267.28;;;2.09;100.00
74125;BME280;62475;52.192;5.396;2023-02-24T04:00:09;101253.06;;;2.13;100.00
74125;BME280;62475;52.192;5.396;2023-02-24T04:02:49;101252.97;;;2.20;100.00
74125;BME280;62475;52.192;5.396;2023-02-24T04:05:21;101255.81;;;2.25;100.00
74125;BME280;62475;52.192;5.396;2023-02-24T04:08:07;101245.94;;;2.30;100.00
74125;BME280;62475;52.192;5.396;2023-02-24T04:10:35;101250.44;;;2.37;100.00
74125;BME280;62475;52.192;5.396;2023-02-24T04:13:08;101242.00;;;2.45;100.00
74125;BME280;62475;52.192;5.396;2023-02-24T04:15:42;101240.09;;;2.45;100.00
74125;BME280;62475;52.192;5.396;2023-02-24T04:18:20;101222.41;;;2.43;100.00
74125;BME280;62475;52.192;5.396;2023-02-24T04:20:46;101225.81;;;2.38;100.00
74125;BME280;62475;52.192;5.396;2023-02-24T04:23:17;101225.59;;;2.40;100.00
74125;BME280;62475;52.192;5.396;2023-02-24T04:25:46;101222.19;;;2.44;100.00
74125;BME280;62475;52.192;5.396;2023-02-24T04:28:12;101219.84;;;2.48;100.00
74125;BME280;62475;52.192;5.396;2023-02-24T04:30:39;101217.00;;;2.54;100.00
74125;BME280;62475;52.192;5.396;2023-02-24T04:33:05;101201.94;;;2.58;100.00
74125;BME280;62475;52.192;5.396;2023-02-24T04:35:30;101194.06;;;2.57;100.00
74125;BME280;62475;52.192;5.396;2023-02-24T04:37:58;101181.78;;;2.54;100.00
74125;BME280;62475;52.192;5.396;2023-02-24T04:40:23;101180.13;;;2.65;100.00
74125;BME280;62475;52.192;5.396;2023-02-24T04:42:49;101175.06;;;2.68;100.00
74125;BME280;62475;52.192;5.396;2023-02-24T04:45:16;101170.84;;;2.72;100.00
74125;BME280;62475;52.192;5.396;2023-02-24T04:47:45;101173.19;;;2.69;100.00
74125;BME280;62475;52.192;5.396;2023-02-24T04:50:13;101173.78;;;2.71;100.00
74125;BME280;62475;52.192;5.396;2023-02-24T04:52:47;101181.44;;;2.74;100.00
74125;BME280;62475;52.192;5.396;2023-02-24T04:55:14;101179.34;;;2.76;100.00
74125;BME280;62475;52.192;5.396;2023-02-24T04:57:41;101176.16;;;2.79;100.00
74125;BME280;62475;52.192;5.396;2023-02-24T05:00:09;101176.97;;;2.79;100.00
74125;BME280;62475;52.192;5.396;2023-02-24T05:02:50;101160.72;;;2.79;100.00
74125;BME280;62475;52.192;5.396;2023-02-24T05:05:16;101155.53;;;2.78;100.00
74125;BME280;62475;52.192;5.396;2023-02-24T05:07:42;101147.72;;;2.70;100.00
74125;BME280;62475;52.192;5.396;2023-02-24T05:10:11;101144.44;;;2.79;100.00
74125;BME280;62475;52.192;5.396;2023-02-24T05:12:37;101144.19;;;2.81;100.00
74125;BME280;62475;52.192;5.396;2023-02-24T05:15:04;101141.72;;;2.79;100.00
74125;BME280;62475;52.192;5.396;2023-02-24T05:17:30;101134.38;;;2.80;100.00
74125;BME280;62475;52.192;5.396;2023-02-24T05:19:55;101125.34;;;2.74;100.00
74125;BME280;62475;52.192;5.396;2023-02-24T05:22:39;101123.53;;;2.80;100.00
74125;BME280;62475;52.192;5.396;2023-02-24T05:25:04;101117.66;;;2.83;100.00
74125;BME280;62475;52.192;5.396;2023-02-24T05:27:30;101107.75;;;2.77;100.00
74125;BME280;62475;52.192;5.396;2023-02-24T05:29:55;101111.41;;;2.82;100.00
74125;BME280;62475;52.192;5.396;2023-02-24T05:32:20;101105.38;;;2.80;100.00
74125;BME280;62475;52.192;5.396;2023-02-24T05:34:46;101102.31;;;2.77;100.00
74125;BME280;62475;52.192;5.396;2023-02-24T05:37:11;101097.38;;;2.74;100.00
74125;BME280;62475;52.192;5.396;2023-02-24T05:39:36;101091.72;;;2.75;100.00
74125;BME280;62475;52.192;5.396;2023-02-24T05:42:02;101084.75;;;2.79;100.00
74125;BME280;62475;52.192;5.396;2023-02-24T05:44:31;101077.22;;;2.81;100.00
74125;BME280;62475;52.192;5.396;2023-02-24T05:46:56;101075.56;;;2.80;100.00
74125;BME280;62475;52.192;5.396;2023-02-24T05:49:25;101068.13;;;2.87;100.00
74125;BME280;62475;52.192;5.396;2023-02-24T05:51:54;101064.22;;;2.83;100.00
74125;BME280;62475;52.192;5.396;2023-02-24T05:54:24;101047.25;;;2.88;100.00
74125;BME280;62475;52.192;5.396;2023-02-24T05:56:52;101049.00;;;2.94;100.00
74125;BME280;62475;52.192;5.396;2023-02-24T05:59:20;101044.88;;;2.91;100.00
74125;BME280;62475;52.192;5.396;2023-02-24T06:01:46;101033.06;;;2.97;100.00
74125;BME280;62475;52.192;5.396;2023-02-24T06:04:12;101028.56;;;3.03;100.00
74125;BME280;62475;52.192;5.396;2023-02-24T06:06:45;101030.94;;;2.99;100.00
74125;BME280;62475;52.192;5.396;2023-02-24T06:09:11;101017.81;;;3.08;100.00
74125;BME280;62475;52.192;5.396;2023-02-24T06:11:38;101021.25;;;3.03;100.00
74125;BME280;62475;52.192;5.396;2023-02-24T06:14:04;101013.22;;;3.08;100.00
74125;BME280;62475;52.192;5.396;2023-02-24T06:16:33;101014.41;;;3.12;100.00
74125;BME280;62475;52.192;5.396;2023-02-24T06:18:59;101011.19;;;3.15;100.00
74125;BME280;62475;52.192;5.396;2023-02-24T06:21:24;101020.97;;;3.16;100.00
74125;BME280;62475;52.192;5.396;2023-02-24T06:23:56;101012.97;;;3.21;100.00
74125;BME280;62475;52.192;5.396;2023-02-24T06:26:22;101008.09;;;3.23;100.00
74125;BME280;62475;52.192;5.396;2023-02-24T06:28:47;101011.88;;;3.22;100.00
74125;BME280;62475;52.192;5.396;2023-02-24T06:31:18;101006.44;;;3.22;100.00
74125;BME280;62475;52.192;5.396;2023-02-24T06:33:45;101008.09;;;3.23;100.00
74125;BME280;62475;52.192;5.396;2023-02-24T06:36:11;101007.13;;;3.29;100.00
74125;BME280;62475;52.192;5.396;2023-02-24T06:38:38;100991.44;;;3.31;100.00
74125;BME280;62475;52.192;5.396;2023-02-24T06:41:04;100980.22;;;3.28;100.00
74125;BME280;62475;52.192;5.396;2023-02-24T06:43:35;100975.38;;;3.30;100.00
74125;BME280;62475;52.192;5.396;2023-02-24T06:46:00;100978.78;;;3.37;100.00
74125;BME280;62475;52.192;5.396;2023-02-24T06:48:26;100978.53;;;3.38;100.00
74125;BME280;62475;52.192;5.396;2023-02-24T06:50:52;100969.66;;;3.43;100.00
74125;BME280;62475;52.192;5.396;2023-02-24T06:53:17;100970.22;;;3.45;100.00
74125;BME280;62475;52.192;5.396;2023-02-24T06:55:43;100971.63;;;3.47;100.00
74125;BME280;62475;52.192;5.396;2023-02-24T06:58:13;100980.69;;;3.53;100.00
74125;BME280;62475;52.192;5.396;2023-02-24T07:00:40;100971.50;;;3.54;100.00
74125;BME280;62475;52.192;5.396;2023-02-24T07:03:09;100966.38;;;3.58;100.00
74125;BME280;62475;52.192;5.396;2023-02-24T07:05:45;100945.72;;;3.57;100.00
74125;BME280;62475;52.192;5.396;2023-02-24T07:08:18;100941.44;;;3.61;100.00
74125;BME280;62475;52.192;5.396;2023-02-24T07:10:50;100944.25;;;3.66;100.00
74125;BME280;62475;52.192;5.396;2023-02-24T07:13:15;100944.91;;;3.73;100.00
74125;BME280;62475;52.192;5.396;2023-02-24T07:15:40;100948.28;;;3.80;100.00
74125;BME280;62475;52.192;5.396;2023-02-24T07:18:13;100948.38;;;3.85;100.00
74125;BME280;62475;52.192;5.396;2023-02-24T07:20:38;100935.44;;;3.92;100.00
74125;BME280;62475;52.192;5.396;2023-02-24T07:23:07;100936.03;;;3.94;100.00
74125;BME280;62475;52.192;5.396;2023-02-24T07:25:33;100933.38;;;3.99;100.00
74125;BME280;62475;52.192;5.396;2023-02-24T07:27:59;100928.19;;;3.97;100.00
74125;BME280;62475;52.192;5.396;2023-02-24T07:30:26;100928.84;;;4.04;100.00
74125;BME280;62475;52.192;5.396;2023-02-24T07:32:51;100924.31;;;4.10;100.00
74125;BME280;62475;52.192;5.396;2023-02-24T07:35:19;100921.75;;;4.03;100.00
74125;BME280;62475;52.192;5.396;2023-02-24T07:37:45;100924.88;;;4.12;100.00
74125;BME280;62475;52.192;5.396;2023-02-24T07:40:12;100925.13;;;4.10;100.00
74125;BME280;62475;52.192;5.396;2023-02-24T07:42:41;100924.72;;;4.18;100.00
74125;BME280;62475;52.192;5.396;2023-02-24T07:45:06;100910.09;;;4.24;100.00
74125;BME280;62475;52.192;5.396;2023-02-24T07:47:32;100906.31;;;4.25;100.00
74125;BME280;62475;52.192;5.396;2023-02-24T07:49:57;100903.41;;;4.32;100.00
74125;BME280;62475;52.192;5.396;2023-02-24T07:52:24;100907.28;;;4.36;100.00
74125;BME280;62475;52.192;5.396;2023-02-24T07:54:49;100902.97;;;4.40;100.00
74125;BME280;62475;52.192;5.396;2023-02-24T07:57:14;100902.72;;;4.41;100.00
74125;BME280;62475;52.192;5.396;2023-02-24T07:59:42;100902.16;;;4.39;100.00
74125;BME280;62475;52.192;5.396;2023-02-24T08:02:11;100906.84;;;4.44;100.00
74125;BME280;62475;52.192;5.396;2023-02-24T08:04:37;100903.22;;;4.38;100.00
74125;BME280;62475;52.192;5.396;2023-02-24T08:07:05;100911.97;;;4.40;100.00
74125;BME280;62475;52.192;5.396;2023-02-24T08:09:38;100899.66;;;4.38;100.00
74125;BME280;62475;52.192;5.396;2023-02-24T08:14:41;100887.28;;;4.47;100.00
74125;BME280;62475;52.192;5.396;2023-02-24T08:17:09;100893.03;;;4.50;100.00
74125;BME280;62475;52.192;5.396;2023-02-24T08:19:34;100878.34;;;4.46;100.00
74125;BME280;62475;52.192;5.396;2023-02-24T08:22:07;100876.47;;;4.52;100.00
74125;BME280;62475;52.192;5.396;2023-02-24T08:27:20;100867.00;;;4.54;100.00
74125;BME280;62475;52.192;5.396;2023-02-24T08:29:47;100867.78;;;4.50;100.00
74125;BME280;62475;52.192;5.396;2023-02-24T08:32:43;100865.66;;;4.57;100.00
74125;BME280;62475;52.192;5.396;2023-02-24T08:35:16;100851.56;;;4.60;100.00
74125;BME280;62475;52.192;5.396;2023-02-24T08:37:49;100852.00;;;4.52;100.00
74125;BME280;62475;52.192;5.396;2023-02-24T08:40:15;100838.44;;;4.57;100.00
74125;BME280;62475;52.192;5.396;2023-02-24T08:43:18;100843.78;;;4.69;100.00
74125;BME280;62475;52.192;5.396;2023-02-24T08:45:44;100847.31;;;4.69;100.00
74125;BME280;62475;52.192;5.396;2023-02-24T08:48:13;100839.59;;;4.61;100.00
74125;BME280;62475;52.192;5.396;2023-02-24T08:50:43;100842.94;;;4.68;100.00
74125;BME280;62475;52.192;5.396;2023-02-24T08:53:09;100845.34;;;4.64;100.00
74125;BME280;62475;52.192;5.396;2023-02-24T08:55:39;100840.53;;;4.72;100.00
74125;BME280;62475;52.192;5.396;2023-02-24T08:58:04;100834.88;;;4.78;100.00
74125;BME280;62475;52.192;5.396;2023-02-24T09:00:35;100828.06;;;4.76;100.00
74125;BME280;62475;52.192;5.396;2023-02-24T09:03:18;100815.97;;;4.88;100.00
74125;BME280;62475;52.192;5.396;2023-02-24T09:05:56;100812.38;;;4.83;100.00
74125;BME280;62475;52.192;5.396;2023-02-24T09:08:22;100808.59;;;4.89;100.00
74125;BME280;62475;52.192;5.396;2023-02-24T09:10:48;100802.59;;;4.87;100.00
74125;BME280;62475;52.192;5.396;2023-02-24T09:13:13;100803.47;;;4.92;100.00
74125;BME280;62475;52.192;5.396;2023-02-24T09:15:38;100790.41;;;4.94;100.00
74125;BME280;62475;52.192;5.396;2023-02-24T09:18:05;100792.16;;;5.05;100.00
74125;BME280;62475;52.192;5.396;2023-02-24T09:20:38;100790.50;;;5.04;100.00
74125;BME280;62475;52.192;5.396;2023-02-24T09:23:40;100787.22;;;5.02;100.00
74125;BME280;62475;52.192;5.396;2023-02-24T09:26:10;100790.00;;;5.07;100.00
74125;BME280;62475;52.192;5.396;2023-02-24T09:28:38;100774.75;;;5.06;100.00
74125;BME280;62475;52.192;5.396;2023-02-24T09:31:13;100770.13;;;5.07;100.00
74125;BME280;62475;52.192;5.396;2023-02-24T09:33:40;100768.66;;;4.94;100.00
74125;BME280;62475;52.192;5.396;2023-02-24T09:36:19;100769.03;;;5.08;100.00
74125;BME280;62475;52.192;5.396;2023-02-24T09:38:45;100758.66;;;5.05;100.00
74125;BME280;62475;52.192;5.396;2023-02-24T09:41:47;100762.19;;;5.00;100.00
74125;BME280;62475;52.192;5.396;2023-02-24T09:44:43;100771.41;;;4.99;100.00
74125;BME280;62475;52.192;5.396;2023-02-24T09:47:16;100759.13;;;4.92;100.00
74125;BME280;62475;52.192;5.396;2023-02-24T09:49:55;100754.50;;;4.97;100.00
74125;BME280;62475;52.192;5.396;2023-02-24T09:52:23;100752.19;;;5.11;100.00
74125;BME280;62475;52.192;5.396;2023-02-24T09:55:04;100748.88;;;5.04;100.00
74125;BME280;62475;52.192;5.396;2023-02-24T09:57:49;100749.41;;;5.06;100.00
74125;BME280;62475;52.192;5.396;2023-02-24T10:00:39;100749.41;;;5.06;100.00
74125;BME280;62475;52.192;5.396;2023-02-24T10:03:13;100751.38;;;5.10;100.00
74125;BME280;62475;52.192;5.396;2023-02-24T10:08:24;100733.97;;;5.16;100.00
74125;BME280;62475;52.192;5.396;2023-02-24T10:10:51;100743.50;;;5.14;100.00
74125;BME280;62475;52.192;5.396;2023-02-24T10:13:47;100737.50;;;5.12;100.00
74125;BME280;62475;52.192;5.396;2023-02-24T10:16:14;100746.28;;;5.24;100.00
74125;BME280;62475;52.192;5.396;2023-02-24T10:26:42;100716.03;;;5.20;100.00
74125;BME280;62475;52.192;5.396;2023-02-24T10:31:48;100710.09;;;5.28;100.00
74125;BME280;62475;52.192;5.396;2023-02-24T10:34:21;100716.97;;;5.36;100.00
74125;BME280;62475;52.192;5.396;2023-02-24T10:36:55;100711.78;;;5.34;100.00
74125;BME280;62475;52.192;5.396;2023-02-24T10:39:22;100710.44;;;5.37;100.00
74125;BME280;62475;52.192;5.396;2023-02-24T10:41:55;100715.63;;;5.38;100.00
74125;BME280;62475;52.192;5.396;2023-02-24T10:44:39;100632.13;;;5.07;100.00
74125;BME280;62475;52.192;5.396;2023-02-24T10:47:16;100697.19;;;5.50;100.00
74125;BME280;62475;52.192;5.396;2023-02-24T10:49:50;100685.47;;;5.55;100.00
74125;BME280;62475;52.192;5.396;2023-02-24T10:52:35;100678.44;;;5.59;100.00
74125;BME280;62475;52.192;5.396;2023-02-24T10:55:17;100681.41;;;5.57;100.00
74125;BME280;62475;52.192;5.396;2023-02-24T10:58:19;100677.06;;;5.61;100.00
74125;BME280;62475;52.192;5.396;2023-02-24T11:01:35;100680.91;;;5.65;100.00
74125;BME280;62475;52.192;5.396;2023-02-24T11:04:07;100672.19;;;5.68;100.00
74125;BME280;62475;52.192;5.396;2023-02-24T11:07:02;100679.03;;;5.76;100.00
74125;BME280;62475;52.192;5.396;2023-02-24T11:09:34;100671.97;;;5.75;100.00
74125;BME280;62475;52.192;5.396;2023-02-24T11:12:23;100663.78;;;5.75;100.00
74125;BME280;62475;52.192;5.396;2023-02-24T11:15:19;100660.25;;;5.79;100.00
74125;BME280;62475;52.192;5.396;2023-02-24T11:18:04;100655.69;;;5.90;100.00
74125;BME280;62475;52.192;5.396;2023-02-24T11:20:40;100659.81;;;5.98;100.00
74125;BME280;62475;52.192;5.396;2023-02-24T11:23:08;100653.28;;;6.04;100.00
74125;BME280;62475;52.192;5.396;2023-02-24T11:25:37;100641.56;;;6.08;100.00
74125;BME280;62475;52.192;5.396;2023-02-24T11:28:04;100648.94;;;6.18;100.00
74125;BME280;62475;52.192;5.396;2023-02-24T11:30:40;100632.59;;;6.18;100.00
74125;BME280;62475;52.192;5.396;2023-02-24T11:36:00;100643.50;;;6.28;100.00
74125;BME280;62475;52.192;5.396;2023-02-24T11:41:06;100634.25;;;6.29;100.00
74125;BME280;62475;52.192;5.396;2023-02-24T11:43:33;100629.59;;;6.34;100.00
74125;BME280;62475;52.192;5.396;2023-02-24T11:46:14;100630.44;;;6.40;100.00
74125;BME280;62475;52.192;5.396;2023-02-24T11:48:45;100617.88;;;6.44;100.00
74125;BME280;62475;52.192;5.396;2023-02-24T11:51:19;100617.34;;;6.52;100.00
74125;BME280;62475;52.192;5.396;2023-02-24T11:54:08;100614.59;;;6.52;100.00
74125;BME280;62475;52.192;5.396;2023-02-24T11:56:36;100609.69;;;6.54;100.00
74125;BME280;62475;52.192;5.396;2023-02-24T12:06:32;100600.41;;;6.80;100.00
74125;BME280;62475;52.192;5.396;2023-02-24T12:09:02;100586.75;;;6.85;100.00
74125;BME280;62475;52.192;5.396;2023-02-24T12:14:03;100598.06;;;7.37;100.00
74125;BME280;62475;52.192;5.396;2023-02-24T12:16:34;100594.81;;;7.30;100.00
74125;BME280;62475;52.192;5.396;2023-02-24T12:22:02;100580.88;;;7.42;100.00
74125;BME280;62475;52.192;5.396;2023-02-24T12:24:29;100574.00;;;7.44;100.00
74125;BME280;62475;52.192;5.396;2023-02-24T12:32:19;100570.59;;;7.72;100.00
74125;BME280;62475;52.192;5.396;2023-02-24T12:37:30;100563.63;;;7.95;100.00
74125;BME280;62475;52.192;5.396;2023-02-24T12:45:36;100551.44;;;8.16;100.00
74125;BME280;62475;52.192;5.396;2023-02-24T12:53:28;100552.25;;;8.17;100.00
74125;BME280;62475;52.192;5.396;2023-02-24T13:06:01;100532.13;;;8.02;100.00
74125;BME280;62475;52.192;5.396;2023-02-24T13:09:04;100521.59;;;8.53;100.00
74125;BME280;62475;52.192;5.396;2023-02-24T13:11:39;100514.06;;;9.16;100.00
74125;BME280;62475;52.192;5.396;2023-02-24T13:16:38;100504.97;;;8.97;100.00
74125;BME280;62475;52.192;5.396;2023-02-24T13:19:49;100517.97;;;8.86;100.00
74125;BME280;62475;52.192;5.396;2023-02-24T13:21:56;100507.75;;;8.68;100.00
74125;BME280;62475;52.192;5.396;2023-02-24T13:24:23;100494.94;;;8.64;100.00
74125;BME280;62475;52.192;5.396;2023-02-24T13:26:49;100496.09;;;8.58;100.00
74125;BME280;62475;52.192;5.396;2023-02-24T13:29:14;100487.06;;;8.57;100.00
74125;BME280;62475;52.192;5.396;2023-02-24T13:31:41;100486.94;;;8.44;100.00
74125;BME280;62475;52.192;5.396;2023-02-24T13:34:14;100514.19;;;8.20;100.00
74125;BME280;62475;52.192;5.396;2023-02-24T13:36:47;100517.34;;;7.60;100.00
74125;BME280;62475;52.192;5.396;2023-02-24T13:41:47;100515.03;;;7.33;100.00
74125;BME280;62475;52.192;5.396;2023-02-24T13:47:00;100516.38;;;7.41;100.00
74125;BME280;62475;52.192;5.396;2023-02-24T13:52:05;100508.44;;;7.88;100.00
74125;BME280;62475;52.192;5.396;2023-02-24T13:54:41;100496.38;;;7.89;100.00
74125;BME280;62475;52.192;5.396;2023-02-24T14:04:34;100477.94;;;8.90;100.00
74125;BME280;62475;52.192;5.396;2023-02-24T14:07:00;100478.03;;;9.04;100.00
74125;BME280;62475;52.192;5.396;2023-02-24T14:09:29;100466.91;;;9.19;100.00
74125;BME280;62475;52.192;5.396;2023-02-24T14:11:57;100473.56;;;9.13;100.00
74125;BME280;62475;52.192;5.396;2023-02-24T14:14:24;100474.19;;;8.81;100.00
74125;BME280;62475;52.192;5.396;2023-02-24T14:16:50;100489.38;;;8.45;100.00
74125;BME280;62475;52.192;5.396;2023-02-24T14:19:15;100494.47;;;8.28;100.00
74125;BME280;62475;52.192;5.396;2023-02-24T14:21:57;100496.72;;;8.16;100.00
74125;BME280;62475;52.192;5.396;2023-02-24T14:24:23;100494.69;;;7.98;100.00
74125;BME280;62475;52.192;5.396;2023-02-24T14:26:52;100491.91;;;8.03;100.00
74125;BME280;62475;52.192;5.396;2023-02-24T14:29:35;100491.16;;;7.92;100.00
74125;BME280;62475;52.192;5.396;2023-02-24T14:32:01;100497.78;;;7.86;100.00
74125;BME280;62475;52.192;5.396;2023-02-24T14:34:28;100491.13;;;7.97;100.00
74125;BME280;62475;52.192;5.396;2023-02-24T14:36:58;100473.00;;;8.06;100.00
74125;BME280;62475;52.192;5.396;2023-02-24T14:39:25;100464.94;;;8.25;100.00
74125;BME280;62475;52.192;5.396;2023-02-24T14:42:01;100483.66;;;8.08;100.00
74125;BME280;62475;52.192;5.396;2023-02-24T14:44:27;100479.13;;;7.93;100.00
74125;BME280;62475;52.192;5.396;2023-02-24T14:46:54;100490.41;;;7.82;100.00
74125;BME280;62475;52.192;5.396;2023-02-24T14:49:33;100471.31;;;7.77;100.00
74125;BME280;62475;52.192;5.396;2023-02-24T14:51:59;100480.91;;;7.74;100.00
74125;BME280;62475;52.192;5.396;2023-02-24T14:54:45;100478.19;;;7.74;100.00
74125;BME280;62475;52.192;5.396;2023-02-24T14:57:16;100478.69;;;7.81;100.00
74125;BME280;62475;52.192;5.396;2023-02-24T14:59:43;100471.81;;;7.84;100.00